sensor_id;sensor_type;location;lat;lon;timestamp;pressure;altitude;pressure_sealevel;temperature;humidity
80509;BME280;69838;52.602;13.434;2023-06-10T00:00:11;101171.94;;;13.53;83.33
80509;BME280;69838;52.602;13.434;2023-06-10T00:00:59;101166.59;;;13.52;83.38
80509;BME280;69838;52.602;13.434;2023-06-10T00:01:44;101169.38;;;13.50;83.25
80509;BME280;69838;52.602;13.434;2023-06-10T00:02:32;101159.59;;;13.48;83.15
80509;BME280;69838;52.602;13.434;2023-06-10T00:03:17;101166.91;;;13.46;83.37
80509;BME280;69838;52.602;13.434;2023-06-10T00:04:03;101171.47;;;13.45;83.32
80509;BME280;69838;52.602;13.434;2023-06-10T00:04:49;101167.97;;;13.43;83.49
80509;BME280;69838;52.602;13.434;2023-06-10T00:05:35;101161.66;;;13.43;83.64
80509;BME280;69838;52.602;13.434;2023-06-10T00:06:21;101173.47;;;13.42;83.61
80509;BME280;69838;52.602;13.434;2023-06-10T00:07:09;101168.13;;;13.40;83.49
80509;BME280;69838;52.602;13.434;2023-06-10T00:07:54;101169.97;;;13.40;83.68
80509;BME280;69838;52.602;13.434;2023-06-10T00:08:40;101172.59;;;13.41;83.58
80509;BME280;69838;52.602;13.434;2023-06-10T00:09:25;101173.72;;;13.37;83.79
80509;BME280;69838;52.602;13.434;2023-06-10T00:10:11;101166.53;;;13.36;83.94
80509;BME280;69838;52.602;13.434;2023-06-10T00:10:57;101169.00;;;13.41;83.75
80509;BME280;69838;52.602;13.434;2023-06-10T00:11:42;101171.88;;;13.38;83.98
80509;BME280;69838;52.602;13.434;2023-06-10T00:12:27;101177.38;;;13.36;83.87
80509;BME280;69838;52.602;13.434;2023-06-10T00:13:14;101174.91;;;13.31;84.17
80509;BME280;69838;52.602;13.434;2023-06-10T00:13:59;101175.81;;;13.32;84.24
80509;BME280;69838;52.602;13.434;2023-06-10T00:14:45;101165.09;;;13.29;84.05
80509;BME280;69838;52.602;13.434;2023-06-10T00:15:30;101163.19;;;13.31;84.17
80509;BME280;69838;52.602;13.434;2023-06-10T00:16:16;101166.03;;;13.28;84.15
80509;BME280;69838;52.602;13.434;2023-06-10T00:17:03;101159.81;;;13.26;84.28
80509;BME280;69838;52.602;13.434;2023-06-10T00:17:48;101168.91;;;13.25;84.59
80509;BME280;69838;52.602;13.434;2023-06-10T00:18:33;101167.16;;;13.24;84.50
80509;BME280;69838;52.602;13.434;2023-06-10T00:19:21;101165.41;;;13.23;84.54
80509;BME280;69838;52.602;13.434;2023-06-10T00:20:11;101165.56;;;13.20;84.62
80509;BME280;69838;52.602;13.434;2023-06-10T00:20:57;101160.16;;;13.20;84.57
80509;BME280;69838;52.602;13.434;2023-06-10T00:21:48;101170.19;;;13.17;84.68
80509;BME280;69838;52.602;13.434;2023-06-10T00:22:33;101172.91;;;13.17;84.77
80509;BME280;69838;52.602;13.434;2023-06-10T00:23:18;101164.06;;;13.14;84.84
80509;BME280;69838;52.602;13.434;2023-06-10T00:24:04;101168.50;;;13.15;84.62
80509;BME280;69838;52.602;13.434;2023-06-10T00:24:56;101165.88;;;13.13;84.83
80509;BME280;69838;52.602;13.434;2023-06-10T00:25:41;101164.16;;;13.12;84.89
80509;BME280;69838;52.602;13.434;2023-06-10T00:26:27;101167.66;;;13.14;85.09
80509;BME280;69838;52.602;13.434;2023-06-10T00:27:12;101167.72;;;13.13;85.02
80509;BME280;69838;52.602;13.434;2023-06-10T00:27:57;101165.88;;;13.13;84.86
80509;BME280;69838;52.602;13.434;2023-06-10T00:28:42;101168.50;;;13.15;84.59
80509;BME280;69838;52.602;13.434;2023-06-10T00:29:30;101165.88;;;13.13;84.61
80509;BME280;69838;52.602;13.434;2023-06-10T00:30:15;101173.22;;;13.11;84.88
80509;BME280;69838;52.602;13.434;2023-06-10T00:31:00;101171.47;;;13.10;85.12
80509;BME280;69838;52.602;13.434;2023-06-10T00:31:46;101177.78;;;13.11;85.18
80509;BME280;69838;52.602;13.434;2023-06-10T00:32:35;101172.44;;;13.09;85.03
80509;BME280;69838;52.602;13.434;2023-06-10T00:33:20;101162.56;;;13.08;85.13
80509;BME280;69838;52.602;13.434;2023-06-10T00:34:07;101164.28;;;13.09;85.16
80509;BME280;69838;52.602;13.434;2023-06-10T00:34:52;101156.94;;;13.11;85.03
80509;BME280;69838;52.602;13.434;2023-06-10T00:35:37;101162.44;;;13.10;85.14
80509;BME280;69838;52.602;13.434;2023-06-10T00:36:22;101156.09;;;13.11;84.91
80509;BME280;69838;52.602;13.434;2023-06-10T00:37:08;101161.09;;;13.18;84.91
80509;BME280;69838;52.602;13.434;2023-06-10T00:37:53;101160.47;;;13.13;84.86
80509;BME280;69838;52.602;13.434;2023-06-10T00:38:38;101167.78;;;13.11;84.95
80509;BME280;69838;52.602;13.434;2023-06-10T00:39:25;101158.72;;;13.12;84.99
80509;BME280;69838;52.602;13.434;2023-06-10T00:40:11;101165.16;;;13.10;85.18
80509;BME280;69838;52.602;13.434;2023-06-10T00:40:56;101158.88;;;13.09;85.18
80509;BME280;69838;52.602;13.434;2023-06-10T00:41:41;101159.84;;;13.08;84.95
80509;BME280;69838;52.602;13.434;2023-06-10T00:42:27;101155.53;;;13.04;85.07
80509;BME280;69838;52.602;13.434;2023-06-10T00:43:12;101148.38;;;13.03;85.20
80509;BME280;69838;52.602;13.434;2023-06-10T00:43:57;101153.78;;;13.03;85.28
80509;BME280;69838;52.602;13.434;2023-06-10T00:44:42;101153.59;;;13.06;85.10
80509;BME280;69838;52.602;13.434;2023-06-10T00:45:28;101159.22;;;13.03;85.23
80509;BME280;69838;52.602;13.434;2023-06-10T00:46:13;101156.66;;;13.00;85.23
80509;BME280;69838;52.602;13.434;2023-06-10T00:46:58;101162.94;;;13.01;85.35
80509;BME280;69838;52.602;13.434;2023-06-10T00:47:44;101162.16;;;12.98;85.41
80509;BME280;69838;52.602;13.434;2023-06-10T00:48:29;101161.28;;;12.98;85.40
80509;BME280;69838;52.602;13.434;2023-06-10T00:49:14;101156.81;;;12.97;85.63
80509;BME280;69838;52.602;13.434;2023-06-10T00:50:01;101159.69;;;12.94;85.69
80509;BME280;69838;52.602;13.434;2023-06-10T00:50:47;101152.50;;;12.93;85.84
80509;BME280;69838;52.602;13.434;2023-06-10T00:51:32;101160.72;;;12.91;85.72
80509;BME280;69838;52.602;13.434;2023-06-10T00:52:18;101157.94;;;12.93;85.81
80509;BME280;69838;52.602;13.434;2023-06-10T00:53:05;101165.25;;;12.91;85.46
80509;BME280;69838;52.602;13.434;2023-06-10T00:53:52;101168.03;;;12.89;85.54
80509;BME280;69838;52.602;13.434;2023-06-10T00:54:37;101163.75;;;12.85;86.00
80509;BME280;69838;52.602;13.434;2023-06-10T00:55:24;101160.13;;;12.85;86.08
80509;BME280;69838;52.602;13.434;2023-06-10T00:56:10;101167.47;;;12.83;86.32
80509;BME280;69838;52.602;13.434;2023-06-10T00:56:56;101161.03;;;12.85;86.17
80509;BME280;69838;52.602;13.434;2023-06-10T00:57:41;101165.75;;;12.82;86.09
80509;BME280;69838;52.602;13.434;2023-06-10T00:58:29;101160.47;;;12.78;86.20
80509;BME280;69838;52.602;13.434;2023-06-10T00:59:15;101162.38;;;12.76;86.43
80509;BME280;69838;52.602;13.434;2023-06-10T01:00:00;101160.47;;;12.78;86.46
80509;BME280;69838;52.602;13.434;2023-06-10T01:00:46;101161.41;;;12.77;86.26
80509;BME280;69838;52.602;13.434;2023-06-10T01:01:31;101162.38;;;12.76;86.70
80509;BME280;69838;52.602;13.434;2023-06-10T01:02:17;101160.63;;;12.75;86.64
80509;BME280;69838;52.602;13.434;2023-06-10T01:03:03;101160.81;;;12.72;86.63
80509;BME280;69838;52.602;13.434;2023-06-10T01:03:52;101167.97;;;12.73;86.71
80509;BME280;69838;52.602;13.434;2023-06-10T01:04:38;101160.09;;;12.69;86.65
80509;BME280;69838;52.602;13.434;2023-06-10T01:05:23;101165.56;;;12.67;86.89
80509;BME280;69838;52.602;13.434;2023-06-10T01:07:25;101164.78;;;12.65;86.90
80509;BME280;69838;52.602;13.434;2023-06-10T01:09:32;101167.78;;;12.59;86.91
80509;BME280;69838;52.602;13.434;2023-06-10T01:10:33;101175.91;;;12.59;87.20
80509;BME280;69838;52.602;13.434;2023-06-10T01:11:26;101174.00;;;12.61;87.01
80509;BME280;69838;52.602;13.434;2023-06-10T01:13:10;101169.53;;;12.60;87.10
80509;BME280;69838;52.602;13.434;2023-06-10T01:13:57;101174.16;;;12.58;87.29
80509;BME280;69838;52.602;13.434;2023-06-10T01:14:43;101169.75;;;12.55;87.49
80509;BME280;69838;52.602;13.434;2023-06-10T01:15:31;101173.44;;;12.54;87.33
80509;BME280;69838;52.602;13.434;2023-06-10T01:16:18;101171.59;;;12.55;87.27
80509;BME280;69838;52.602;13.434;2023-06-10T01:17:04;101172.53;;;12.54;87.33
80509;BME280;69838;52.602;13.434;2023-06-10T01:18:00;101168.09;;;12.53;87.43
80509;BME280;69838;52.602;13.434;2023-06-10T01:18:46;101170.00;;;12.51;87.39
80509;BME280;69838;52.602;13.434;2023-06-10T01:19:32;101171.81;;;12.50;87.57
80509;BME280;69838;52.602;13.434;2023-06-10T01:20:19;101172.78;;;12.49;87.64
80509;BME280;69838;52.602;13.434;2023-06-10T01:21:04;101171.09;;;12.47;87.81
80509;BME280;69838;52.602;13.434;2023-06-10T01:21:51;101171.03;;;12.48;87.73
80509;BME280;69838;52.602;13.434;2023-06-10T01:22:36;101172.13;;;12.44;87.52
80509;BME280;69838;52.602;13.434;2023-06-10T01:23:22;101179.22;;;12.47;87.53
80509;BME280;69838;52.602;13.434;2023-06-10T01:24:07;101174.78;;;12.46;87.85
80509;BME280;69838;52.602;13.434;2023-06-10T01:24:55;101176.81;;;12.40;87.76
80509;BME280;69838;52.602;13.434;2023-06-10T01:25:48;101176.81;;;12.40;87.81
80509;BME280;69838;52.602;13.434;2023-06-10T01:26:35;101175.06;;;12.39;87.80
80509;BME280;69838;52.602;13.434;2023-06-10T01:27:22;101168.06;;;12.35;87.91
80509;BME280;69838;52.602;13.434;2023-06-10T01:28:13;101169.88;;;12.35;87.93
80509;BME280;69838;52.602;13.434;2023-06-10T01:29:14;101172.53;;;12.36;88.12
80509;BME280;69838;52.602;13.434;2023-06-10T01:30:12;101171.69;;;12.34;88.13
80509;BME280;69838;52.602;13.434;2023-06-10T01:31:16;101168.19;;;12.32;88.16
80509;BME280;69838;52.602;13.434;2023-06-10T01:32:11;101173.59;;;12.32;88.24
80509;BME280;69838;52.602;13.434;2023-06-10T01:32:59;101177.44;;;12.28;88.41
80509;BME280;69838;52.602;13.434;2023-06-10T01:33:47;101178.44;;;12.26;88.74
80509;BME280;69838;52.602;13.434;2023-06-10T01:34:35;101176.69;;;12.25;88.42
80509;BME280;69838;52.602;13.434;2023-06-10T01:35:25;101184.81;;;12.25;88.61
80509;BME280;69838;52.602;13.434;2023-06-10T01:36:12;101189.50;;;12.21;88.53
80509;BME280;69838;52.602;13.434;2023-06-10T01:36:58;101193.16;;;12.20;88.79
80509;BME280;69838;52.602;13.434;2023-06-10T01:37:46;101180.66;;;12.17;88.87
80509;BME280;69838;52.602;13.434;2023-06-10T01:38:39;101173.72;;;12.12;88.90
80509;BME280;69838;52.602;13.434;2023-06-10T01:39:26;101194.41;;;12.13;89.30
80509;BME280;69838;52.602;13.434;2023-06-10T01:40:12;101184.53;;;12.12;89.15
80509;BME280;69838;52.602;13.434;2023-06-10T01:40:59;101181.09;;;12.08;89.41
80509;BME280;69838;52.602;13.434;2023-06-10T01:41:45;101180.13;;;12.09;89.50
80509;BME280;69838;52.602;13.434;2023-06-10T01:42:32;101175.63;;;12.10;89.43
80509;BME280;69838;52.602;13.434;2023-06-10T01:43:19;101176.41;;;12.12;89.59
80509;BME280;69838;52.602;13.434;2023-06-10T01:44:05;101173.84;;;12.09;89.73
80509;BME280;69838;52.602;13.434;2023-06-10T01:44:50;101176.56;;;12.09;89.45
80509;BME280;69838;52.602;13.434;2023-06-10T01:45:35;101183.88;;;12.07;89.26
80509;BME280;69838;52.602;13.434;2023-06-10T01:46:21;101178.47;;;12.07;89.59
80509;BME280;69838;52.602;13.434;2023-06-10T01:47:07;101184.69;;;12.09;89.73
80509;BME280;69838;52.602;13.434;2023-06-10T01:47:52;101185.63;;;12.08;89.33
80509;BME280;69838;52.602;13.434;2023-06-10T01:48:38;101180.19;;;12.08;89.55
80509;BME280;69838;52.602;13.434;2023-06-10T01:49:23;101179.34;;;12.07;89.59
80509;BME280;69838;52.602;13.434;2023-06-10T01:50:09;101174.66;;;12.11;89.80
80509;BME280;69838;52.602;13.434;2023-06-10T01:50:54;101172.91;;;12.10;89.49
80509;BME280;69838;52.602;13.434;2023-06-10T01:51:43;101182.03;;;12.07;89.61
80509;BME280;69838;52.602;13.434;2023-06-10T01:52:28;101178.31;;;12.10;89.67
80509;BME280;69838;52.602;13.434;2023-06-10T01:53:13;101175.63;;;12.10;89.56
80509;BME280;69838;52.602;13.434;2023-06-10T01:53:58;101185.53;;;12.09;89.32
80509;BME280;69838;52.602;13.434;2023-06-10T01:54:44;101181.84;;;12.12;89.61
80509;BME280;69838;52.602;13.434;2023-06-10T01:55:29;101185.34;;;12.14;89.57
80509;BME280;69838;52.602;13.434;2023-06-10T01:56:14;101176.56;;;12.09;89.33
80509;BME280;69838;52.602;13.434;2023-06-10T01:57:03;101180.19;;;12.08;89.65
80509;BME280;69838;52.602;13.434;2023-06-10T01:57:48;101179.13;;;12.12;89.58
80509;BME280;69838;52.602;13.434;2023-06-10T01:58:33;101175.69;;;12.08;89.69
80509;BME280;69838;52.602;13.434;2023-06-10T01:59:19;101180.19;;;12.08;89.66
80509;BME280;69838;52.602;13.434;2023-06-10T02:00:04;101173.06;;;12.07;89.92
80509;BME280;69838;52.602;13.434;2023-06-10T02:00:50;101175.91;;;12.03;89.79
80509;BME280;69838;52.602;13.434;2023-06-10T02:01:35;101176.88;;;12.02;89.80
80509;BME280;69838;52.602;13.434;2023-06-10T02:02:20;101177.72;;;12.03;89.74
80509;BME280;69838;52.602;13.434;2023-06-10T02:03:07;101174.06;;;12.04;89.76
80509;BME280;69838;52.602;13.434;2023-06-10T02:03:52;101174.97;;;12.05;89.80
80509;BME280;69838;52.602;13.434;2023-06-10T02:04:38;101185.78;;;12.05;90.26
80509;BME280;69838;52.602;13.434;2023-06-10T02:05:23;101178.59;;;12.03;90.01
80509;BME280;69838;52.602;13.434;2023-06-10T02:06:08;101183.16;;;12.03;89.90
80509;BME280;69838;52.602;13.434;2023-06-10T02:06:53;101180.38;;;12.05;89.81
80509;BME280;69838;52.602;13.434;2023-06-10T02:07:40;101182.28;;;12.02;90.03
80509;BME280;69838;52.602;13.434;2023-06-10T02:08:26;101189.56;;;12.00;89.85
80509;BME280;69838;52.602;13.434;2023-06-10T02:09:12;101182.41;;;11.99;89.93
80509;BME280;69838;52.602;13.434;2023-06-10T02:09:57;101186.84;;;12.00;90.05
80509;BME280;69838;52.602;13.434;2023-06-10T02:10:43;101175.09;;;12.01;90.13
80509;BME280;69838;52.602;13.434;2023-06-10T02:11:28;101184.16;;;12.00;90.01
80509;BME280;69838;52.602;13.434;2023-06-10T02:12:13;101179.63;;;12.01;89.97
80509;BME280;69838;52.602;13.434;2023-06-10T02:12:58;101186.84;;;12.00;89.80
80509;BME280;69838;52.602;13.434;2023-06-10T02:13:44;101181.44;;;12.00;89.87
80509;BME280;69838;52.602;13.434;2023-06-10T02:14:29;101180.56;;;12.00;90.15
80509;BME280;69838;52.602;13.434;2023-06-10T02:15:14;101184.16;;;12.00;90.26
80509;BME280;69838;52.602;13.434;2023-06-10T02:16:00;101180.56;;;12.00;90.18
80509;BME280;69838;52.602;13.434;2023-06-10T02:16:46;101182.41;;;11.99;90.10
80509;BME280;69838;52.602;13.434;2023-06-10T02:17:31;101187.09;;;11.96;90.13
80509;BME280;69838;52.602;13.434;2023-06-10T02:18:17;101189.72;;;11.97;90.30
80509;BME280;69838;52.602;13.434;2023-06-10T02:19:05;101195.22;;;11.96;90.38
80509;BME280;69838;52.602;13.434;2023-06-10T02:19:51;101187.97;;;11.96;90.41
80509;BME280;69838;52.602;13.434;2023-06-10T02:20:39;101192.56;;;11.94;90.34
80509;BME280;69838;52.602;13.434;2023-06-10T02:21:24;101188.19;;;11.92;90.29
80509;BME280;69838;52.602;13.434;2023-06-10T02:22:10;101185.50;;;11.92;90.51
80509;BME280;69838;52.602;13.434;2023-06-10T02:22:55;101190.91;;;11.92;90.53
80509;BME280;69838;52.602;13.434;2023-06-10T02:23:40;101197.28;;;11.89;90.37
80509;BME280;69838;52.602;13.434;2023-06-10T02:24:25;101192.66;;;11.93;90.46
80509;BME280;69838;52.602;13.434;2023-06-10T02:25:11;101190.00;;;11.91;90.49
80509;BME280;69838;52.602;13.434;2023-06-10T02:25:56;101193.69;;;11.90;90.55
80509;BME280;69838;52.602;13.434;2023-06-10T02:26:41;101193.72;;;11.89;90.43
80509;BME280;69838;52.602;13.434;2023-06-10T02:27:26;101187.50;;;11.87;90.70
80509;BME280;69838;52.602;13.434;2023-06-10T02:28:12;101193.84;;;11.85;90.46
80509;BME280;69838;52.602;13.434;2023-06-10T02:28:57;101192.00;;;11.86;90.73
80509;BME280;69838;52.602;13.434;2023-06-10T02:29:42;101196.56;;;11.85;90.79
80509;BME280;69838;52.602;13.434;2023-06-10T02:30:28;101197.34;;;11.88;90.57
80509;BME280;69838;52.602;13.434;2023-06-10T02:31:13;101192.13;;;11.84;90.68
80509;BME280;69838;52.602;13.434;2023-06-10T02:31:58;101191.22;;;11.84;90.81
80509;BME280;69838;52.602;13.434;2023-06-10T02:32:44;101190.34;;;11.83;90.84
80509;BME280;69838;52.602;13.434;2023-06-10T02:33:32;101186.59;;;11.86;90.82
80509;BME280;69838;52.602;13.434;2023-06-10T02:34:18;101192.00;;;11.86;90.65
80509;BME280;69838;52.602;13.434;2023-06-10T02:35:04;101192.19;;;11.83;90.79
80509;BME280;69838;52.602;13.434;2023-06-10T02:35:49;101185.97;;;11.81;90.51
80509;BME280;69838;52.602;13.434;2023-06-10T02:36:35;101187.69;;;11.82;90.79
80509;BME280;69838;52.602;13.434;2023-06-10T02:37:20;101193.03;;;11.83;90.83
80509;BME280;69838;52.602;13.434;2023-06-10T02:38:06;101190.41;;;11.82;90.95
80509;BME280;69838;52.602;13.434;2023-06-10T02:38:51;101194.94;;;11.81;90.80
80509;BME280;69838;52.602;13.434;2023-06-10T02:39:36;101189.66;;;11.78;90.75
80509;BME280;69838;52.602;13.434;2023-06-10T02:40:21;101190.53;;;11.79;90.99
80509;BME280;69838;52.602;13.434;2023-06-10T02:41:07;101185.22;;;11.77;91.08
80509;BME280;69838;52.602;13.434;2023-06-10T02:41:52;101194.22;;;11.78;91.22
80509;BME280;69838;52.602;13.434;2023-06-10T02:42:37;101195.94;;;11.79;91.00
80509;BME280;69838;52.602;13.434;2023-06-10T02:43:22;101197.84;;;11.77;90.91
80509;BME280;69838;52.602;13.434;2023-06-10T02:44:08;101199.75;;;11.75;90.96
80509;BME280;69838;52.602;13.434;2023-06-10T02:44:53;101194.47;;;11.72;91.13
80509;BME280;69838;52.602;13.434;2023-06-10T02:45:38;101192.63;;;11.74;91.08
80509;BME280;69838;52.602;13.434;2023-06-10T02:46:23;101198.09;;;11.72;91.20
80509;BME280;69838;52.602;13.434;2023-06-10T02:47:09;101192.75;;;11.71;91.41
80509;BME280;69838;52.602;13.434;2023-06-10T02:47:54;101196.53;;;11.67;91.32
80509;BME280;69838;52.602;13.434;2023-06-10T02:48:43;101183.97;;;11.65;91.33
80509;BME280;69838;52.602;13.434;2023-06-10T02:49:31;101188.44;;;11.67;91.44
80509;BME280;69838;52.602;13.434;2023-06-10T02:50:16;101187.47;;;11.68;91.62
80509;BME280;69838;52.602;13.434;2023-06-10T02:51:01;101201.97;;;11.67;91.58
80509;BME280;69838;52.602;13.434;2023-06-10T02:51:47;101198.28;;;11.68;91.06
80509;BME280;69838;52.602;13.434;2023-06-10T02:52:32;101196.38;;;11.70;91.65
80509;BME280;69838;52.602;13.434;2023-06-10T02:53:17;101197.19;;;11.72;91.26
80509;BME280;69838;52.602;13.434;2023-06-10T02:54:03;101198.09;;;11.72;91.75
80509;BME280;69838;52.602;13.434;2023-06-10T02:54:48;101195.44;;;11.71;91.56
80509;BME280;69838;52.602;13.434;2023-06-10T02:55:33;101196.38;;;11.70;91.46
80509;BME280;69838;52.602;13.434;2023-06-10T02:56:20;101199.09;;;11.70;91.53
80509;BME280;69838;52.602;13.434;2023-06-10T02:57:06;101193.75;;;11.68;91.50
80509;BME280;69838;52.602;13.434;2023-06-10T02:57:52;101198.28;;;11.68;91.73
80509;BME280;69838;52.602;13.434;2023-06-10T02:58:39;101193.75;;;11.68;91.92
80509;BME280;69838;52.602;13.434;2023-06-10T02:59:24;101192.94;;;11.66;91.57
80509;BME280;69838;52.602;13.434;2023-06-10T03:00:09;101192.00;;;11.67;91.82
80509;BME280;69838;52.602;13.434;2023-06-10T03:00:56;101193.75;;;11.68;91.90
80509;BME280;69838;52.602;13.434;2023-06-10T03:01:42;101187.34;;;11.71;91.81
80509;BME280;69838;52.602;13.434;2023-06-10T03:02:27;101190.97;;;11.70;91.62
80509;BME280;69838;52.602;13.434;2023-06-10T03:03:13;101192.63;;;11.74;91.69
80509;BME280;69838;52.602;13.434;2023-06-10T03:03:58;101188.13;;;11.73;91.40
80509;BME280;69838;52.602;13.434;2023-06-10T03:04:43;101185.56;;;11.70;91.47
80509;BME280;69838;52.602;13.434;2023-06-10T03:05:30;101188.19;;;11.71;91.51
80509;BME280;69838;52.602;13.434;2023-06-10T03:06:15;101185.56;;;11.70;91.60
80509;BME280;69838;52.602;13.434;2023-06-10T03:07:01;101196.38;;;11.70;91.70
80509;BME280;69838;52.602;13.434;2023-06-10T03:07:48;101191.94;;;11.69;91.55
80509;BME280;69838;52.602;13.434;2023-06-10T03:08:33;101187.47;;;11.68;91.76
80509;BME280;69838;52.602;13.434;2023-06-10T03:09:19;101192.88;;;11.68;91.57
80509;BME280;69838;52.602;13.434;2023-06-10T03:10:05;101193.00;;;11.64;91.50
80509;BME280;69838;52.602;13.434;2023-06-10T03:10:51;101183.97;;;11.65;91.79
80509;BME280;69838;52.602;13.434;2023-06-10T03:11:36;101182.19;;;11.64;91.84
80509;BME280;69838;52.602;13.434;2023-06-10T03:12:21;101186.38;;;11.72;91.88
80509;BME280;69838;52.602;13.434;2023-06-10T03:13:07;101195.38;;;11.72;91.46
80509;BME280;69838;52.602;13.434;2023-06-10T03:13:53;101187.28;;;11.72;91.74
80509;BME280;69838;52.602;13.434;2023-06-10T03:14:39;101200.72;;;11.74;91.60
80509;BME280;69838;52.602;13.434;2023-06-10T03:15:24;101191.66;;;11.75;91.94
80509;BME280;69838;52.602;13.434;2023-06-10T03:16:10;101196.25;;;11.73;91.64
80509;BME280;69838;52.602;13.434;2023-06-10T03:16:57;101198.94;;;11.73;91.70
80509;BME280;69838;52.602;13.434;2023-06-10T03:17:42;101199.09;;;11.70;91.65
80509;BME280;69838;52.602;13.434;2023-06-10T03:18:28;101201.78;;;11.70;91.63
80509;BME280;69838;52.602;13.434;2023-06-10T03:19:13;101197.19;;;11.72;91.56
80509;BME280;69838;52.602;13.434;2023-06-10T03:19:58;101194.66;;;11.69;91.53
80509;BME280;69838;52.602;13.434;2023-06-10T03:20:43;101196.38;;;11.70;91.72
80509;BME280;69838;52.602;13.434;2023-06-10T03:21:29;101189.06;;;11.72;91.88
80509;BME280;69838;52.602;13.434;2023-06-10T03:22:16;101194.47;;;11.72;91.62
80509;BME280;69838;52.602;13.434;2023-06-10T03:23:01;101193.63;;;11.71;91.63
80509;BME280;69838;52.602;13.434;2023-06-10T03:23:46;101193.69;;;11.70;91.59
80509;BME280;69838;52.602;13.434;2023-06-10T03:24:32;101194.47;;;11.72;91.63
80509;BME280;69838;52.602;13.434;2023-06-10T03:25:17;101194.34;;;11.75;91.79
80509;BME280;69838;52.602;13.434;2023-06-10T03:26:02;101202.47;;;11.75;91.64
80509;BME280;69838;52.602;13.434;2023-06-10T03:26:47;101201.53;;;11.76;91.68
80509;BME280;69838;52.602;13.434;2023-06-10T03:27:32;101196.97;;;11.76;91.64
80509;BME280;69838;52.602;13.434;2023-06-10T03:28:18;101205.09;;;11.76;91.44
80509;BME280;69838;52.602;13.434;2023-06-10T03:29:03;101195.22;;;11.75;91.41
80509;BME280;69838;52.602;13.434;2023-06-10T03:29:48;101199.88;;;11.72;91.63
80509;BME280;69838;52.602;13.434;2023-06-10T03:30:33;101208.84;;;11.74;91.40
80509;BME280;69838;52.602;13.434;2023-06-10T03:31:19;101200.63;;;11.75;91.54
80509;BME280;69838;52.602;13.434;2023-06-10T03:32:04;101203.25;;;11.77;91.65
80509;BME280;69838;52.602;13.434;2023-06-10T03:32:50;101206.13;;;11.74;91.61
80509;BME280;69838;52.602;13.434;2023-06-10T03:33:35;101208.66;;;11.77;91.75
80509;BME280;69838;52.602;13.434;2023-06-10T03:34:21;101202.19;;;11.81;91.37
80509;BME280;69838;52.602;13.434;2023-06-10T03:35:07;101197.72;;;11.80;91.58
80509;BME280;69838;52.602;13.434;2023-06-10T03:35:52;101198.59;;;11.80;91.41
80509;BME280;69838;52.602;13.434;2023-06-10T03:36:37;101199.50;;;11.81;91.47
80509;BME280;69838;52.602;13.434;2023-06-10T03:37:26;101203.13;;;11.80;91.31
80509;BME280;69838;52.602;13.434;2023-06-10T03:38:11;101199.50;;;11.81;91.51
80509;BME280;69838;52.602;13.434;2023-06-10T03:38:57;101203.13;;;11.80;91.32
80509;BME280;69838;52.602;13.434;2023-06-10T03:39:42;101202.09;;;11.82;91.46
80509;BME280;69838;52.602;13.434;2023-06-10T03:40:27;101204.72;;;11.84;91.20
80509;BME280;69838;52.602;13.434;2023-06-10T03:41:12;101203.66;;;11.88;91.12
80509;BME280;69838;52.602;13.434;2023-06-10T03:41:58;101206.38;;;11.88;91.21
80509;BME280;69838;52.602;13.434;2023-06-10T03:42:43;101209.91;;;11.90;91.25
80509;BME280;69838;52.602;13.434;2023-06-10T03:43:29;101203.53;;;11.91;90.88
80509;BME280;69838;52.602;13.434;2023-06-10T03:44:16;101206.25;;;11.91;91.08
80509;BME280;69838;52.602;13.434;2023-06-10T03:45:02;101200.81;;;11.91;91.07
80509;BME280;69838;52.602;13.434;2023-06-10T03:45:48;101209.69;;;11.95;91.15
80509;BME280;69838;52.602;13.434;2023-06-10T03:46:34;101215.03;;;11.96;91.17
80509;BME280;69838;52.602;13.434;2023-06-10T03:47:19;101204.19;;;11.96;90.79
80509;BME280;69838;52.602;13.434;2023-06-10T03:48:05;101206.84;;;11.98;90.94
80509;BME280;69838;52.602;13.434;2023-06-10T03:48:51;101210.47;;;11.97;90.57
80509;BME280;69838;52.602;13.434;2023-06-10T03:49:36;101217.59;;;11.99;90.87
80509;BME280;69838;52.602;13.434;2023-06-10T03:50:21;101202.28;;;11.98;90.88
80509;BME280;69838;52.602;13.434;2023-06-10T03:51:08;101207.56;;;12.01;91.48
80509;BME280;69838;52.602;13.434;2023-06-10T03:51:53;101209.34;;;12.02;91.13
80509;BME280;69838;52.602;13.434;2023-06-10T03:52:39;101209.16;;;12.06;91.40
80509;BME280;69838;52.602;13.434;2023-06-10T03:53:25;101210.06;;;12.06;91.23
80509;BME280;69838;52.602;13.434;2023-06-10T03:54:10;101213.56;;;12.08;91.29
80509;BME280;69838;52.602;13.434;2023-06-10T03:54:55;101214.44;;;12.09;90.96
80509;BME280;69838;52.602;13.434;2023-06-10T03:55:41;101214.44;;;12.09;90.91
80509;BME280;69838;52.602;13.434;2023-06-10T03:56:26;101216.22;;;12.10;91.09
80509;BME280;69838;52.602;13.434;2023-06-10T03:57:11;101211.59;;;12.12;90.83
80509;BME280;69838;52.602;13.434;2023-06-10T03:57:57;101212.53;;;12.11;91.01
80509;BME280;69838;52.602;13.434;2023-06-10T03:58:43;101216.03;;;12.13;90.70
80509;BME280;69838;52.602;13.434;2023-06-10T03:59:28;101211.53;;;12.13;90.76
80509;BME280;69838;52.602;13.434;2023-06-10T04:00:15;101214.00;;;12.18;91.58
80509;BME280;69838;52.602;13.434;2023-06-10T04:01:00;101219.41;;;12.18;90.89
80509;BME280;69838;52.602;13.434;2023-06-10T04:01:45;101217.69;;;12.17;90.66